首页
METAR-TAF:

METAR-TAF

机场 :

基隆拿國際機場

基隆拿, 不列颠哥伦比亚, 加拿大

纬度: 49-58N, 经度: 119-23W, 海拔: 430米

当前天气观测

该预报发布于54分钟前的05:00 UTC
风速4节,风向东转东南,在之间变化
温度 3°C
湿度 81%
气压 1000 hPa
能見度: 14.5公里
多云层高于2900英尺
阴天层高于5500英尺

METAR: CYLW 120500Z AUTO 12004KT 090V170 9SM BKN029 OVC055 03/M00 A2953 RMK PRESRR SLP016

时间: 21:54 (05:54 UTC)

预报

该预报发布于5小时和16分钟前的00:38 UTC
预报有效从12日的 01点(UTC)到 12日的 13点(UTC)
风速5节,风向东南
能見度: 9.7公里
散云层高于900英尺
阴天层高于2500英尺
小雨, 雪
短暂存在
从 12日的 01点(UTC)到 12日的 13点(UTC)
能見度: 3.2公里
多云层高于900英尺
阴天层高于2000英尺
小雪, 轻雾

TAF: CYLW 120038Z 1201/1213 13005KT 6SM -RASN SCT009 OVC025 TEMPO 1201/1213 2SM -SN BR BKN009 OVC020 RMK FCST BASED ON AUTO OBS. NXT FCST BY 120700Z

超过4000个机场的气象观测和天气预报(METAR&TAF报告)。

可查询的气象台以黄色和红色小点在地图上表示。

将鼠标移到小点上方,可查看气象台名称。

然后点击查看天气观测和预报。

如需切换地图:点击带黑十字的绿色按钮放大地图;点击带横线的绿色按钮缩小地图;或者点击绿色箭头查看邻近地区的地图。


METAR-TAF: